createdAt,value
2017-10-19T00:00:39.421Z,22.50
2017-10-19T00:03:06.806Z,22.13
2017-10-19T00:05:34.206Z,22.57
2017-10-19T00:08:01.615Z,21.40
2017-10-19T00:10:29.014Z,22.20
2017-10-19T00:12:56.405Z,22.27
2017-10-19T00:15:23.810Z,23.30
2017-10-19T00:17:51.202Z,24.17
2017-10-19T00:20:18.594Z,22.40
2017-10-19T00:22:46.001Z,21.50
2017-10-19T00:25:13.394Z,22.73
2017-10-19T00:27:40.803Z,23.20
2017-10-19T00:30:08.202Z,24.10
2017-10-19T00:32:35.593Z,24.27
2017-10-19T00:35:02.989Z,22.37
2017-10-19T00:37:30.405Z,24.87
2017-10-19T00:39:57.803Z,22.17
2017-10-19T00:42:25.185Z,23.67
2017-10-19T00:44:52.593Z,23.57
2017-10-19T00:47:19.989Z,23.80
2017-10-19T00:49:47.387Z,23.43
2017-10-19T00:52:14.786Z,24.17
2017-10-19T00:54:42.186Z,24.37
2017-10-19T00:57:09.586Z,22.30
2017-10-19T00:59:37.001Z,23.57
2017-10-19T01:02:04.390Z,25.20
2017-10-19T01:04:31.790Z,21.97
2017-10-19T01:06:59.202Z,23.93
2017-10-19T01:09:26.607Z,23.80
2017-10-19T01:11:54.017Z,25.17
2017-10-19T01:14:21.418Z,22.30
2017-10-19T01:16:48.833Z,22.50
2017-10-19T01:19:16.228Z,24.13
2017-10-19T01:21:43.647Z,23.30
2017-10-19T01:24:11.033Z,23.47
2017-10-19T01:26:38.421Z,24.70
2017-10-19T01:29:05.830Z,22.93
2017-10-19T01:31:33.222Z,25.20
2017-10-19T01:34:00.610Z,24.87
2017-10-19T01:36:28.027Z,24.00
2017-10-19T01:38:55.423Z,24.93
2017-10-19T01:41:22.815Z,24.00
2017-10-19T01:43:50.253Z,23.10
2017-10-19T01:46:17.610Z,23.83
2017-10-19T01:48:45.006Z,23.97
2017-10-19T01:51:12.414Z,25.33
2017-10-19T01:53:39.804Z,24.27
2017-10-19T01:56:07.208Z,24.40
2017-10-19T01:58:34.611Z,24.90
2017-10-19T02:01:02.011Z,26.23
2017-10-19T02:03:29.405Z,26.23
2017-10-19T02:05:56.811Z,26.20
2017-10-19T02:08:24.202Z,24.33
2017-10-19T02:10:51.591Z,26.30
2017-10-19T02:13:18.993Z,24.73
2017-10-19T02:15:46.396Z,25.87
2017-10-19T02:18:13.785Z,25.33
2017-10-19T02:20:41.190Z,25.57
2017-10-19T02:23:08.581Z,28.27
2017-10-19T02:25:35.975Z,25.47
2017-10-19T02:28:03.392Z,27.57
2017-10-19T02:30:30.793Z,27.40
2017-10-19T02:32:58.186Z,26.83
2017-10-19T02:35:25.595Z,24.80
2017-10-19T02:37:52.994Z,25.40
2017-10-19T02:40:20.389Z,25.20
2017-10-19T02:42:47.794Z,24.50
2017-10-19T02:45:15.193Z,24.40
2017-10-19T02:47:42.587Z,23.93
2017-10-19T02:50:10.001Z,23.87
2017-10-19T02:52:37.386Z,24.23
2017-10-19T02:55:04.785Z,24.37
2017-10-19T02:57:32.192Z,24.97
2017-10-19T02:59:59.587Z,24.20
2017-10-19T03:02:26.983Z,23.93
2017-10-19T03:04:54.385Z,24.03
2017-10-19T03:07:21.778Z,23.27
2017-10-19T03:09:49.170Z,24.80
2017-10-19T03:12:16.577Z,24.07
2017-10-19T03:14:43.977Z,23.03
2017-10-19T03:17:11.384Z,24.60
2017-10-19T03:19:38.794Z,24.43
2017-10-19T03:22:06.193Z,25.70
2017-10-19T03:24:33.582Z,25.53
2017-10-19T03:27:00.985Z,24.90
2017-10-19T03:29:28.375Z,24.80
2017-10-19T03:31:55.765Z,25.00
2017-10-19T03:34:23.171Z,25.23
2017-10-19T03:36:50.557Z,26.63
2017-10-19T03:39:17.953Z,22.90
2017-10-19T03:41:45.369Z,26.60
2017-10-19T03:44:12.765Z,24.97
2017-10-19T03:46:40.157Z,25.40
2017-10-19T03:49:07.556Z,27.10
2017-10-19T03:51:34.945Z,26.13
2017-10-19T03:54:02.334Z,26.30
2017-10-19T03:56:29.741Z,24.93
2017-10-19T03:58:57.134Z,24.00
2017-10-19T04:01:24.525Z,24.70
2017-10-19T04:03:51.930Z,23.93
2017-10-19T04:06:19.317Z,24.60
2017-10-19T04:08:46.709Z,26.20
2017-10-19T04:11:14.110Z,22.80
2017-10-19T04:13:41.498Z,22.83
2017-10-19T04:16:08.889Z,23.90
2017-10-19T04:18:36.292Z,24.80
2017-10-19T04:21:03.682Z,24.07
2017-10-19T04:23:31.069Z,24.07
2017-10-19T04:25:58.473Z,23.20
2017-10-19T04:28:25.891Z,22.50
2017-10-19T04:30:53.274Z,25.60
2017-10-19T04:33:20.674Z,24.63
2017-10-19T04:35:48.062Z,24.07
2017-10-19T04:38:15.457Z,24.57
2017-10-19T04:40:42.862Z,23.37
2017-10-19T04:43:10.253Z,23.70
2017-10-19T04:45:37.656Z,24.43
2017-10-19T04:48:05.061Z,26.10
2017-10-19T04:50:32.455Z,24.73
2017-10-19T04:52:59.842Z,24.23
2017-10-19T04:55:27.242Z,24.03
2017-10-19T04:57:54.644Z,22.83
2017-10-19T05:00:22.175Z,24.00
2017-10-19T05:02:49.585Z,24.07
2017-10-19T05:05:16.983Z,25.33
2017-10-19T05:07:44.373Z,23.97
2017-10-19T05:10:11.778Z,25.13
2017-10-19T05:12:39.169Z,26.83
2017-10-19T05:15:06.562Z,26.20
2017-10-19T05:17:33.975Z,24.90
2017-10-19T05:20:01.367Z,23.40
2017-10-19T05:22:28.762Z,27.57
2017-10-19T05:24:56.168Z,25.83
2017-10-19T05:27:23.561Z,23.40
2017-10-19T05:29:51.774Z,23.80
2017-10-19T05:32:19.182Z,25.10
2017-10-19T05:34:46.573Z,25.80
2017-10-19T05:37:13.968Z,26.13
2017-10-19T05:39:41.378Z,23.97
2017-10-19T05:42:08.766Z,25.30
2017-10-19T05:44:36.157Z,23.53
2017-10-19T05:47:03.574Z,24.30
2017-10-19T05:49:30.966Z,22.53
2017-10-19T05:51:58.357Z,24.63
2017-10-19T05:54:25.769Z,23.83
2017-10-19T05:56:53.161Z,24.90
2017-10-19T05:59:20.561Z,26.60
2017-10-19T06:01:47.974Z,27.47
2017-10-19T06:04:15.386Z,28.00
2017-10-19T06:06:42.786Z,27.13
2017-10-19T06:09:10.191Z,25.50
2017-10-19T06:11:37.600Z,25.47
2017-10-19T06:14:05.015Z,27.97
2017-10-19T06:16:32.390Z,26.67
2017-10-19T06:18:59.782Z,26.67
2017-10-19T06:21:27.174Z,25.37
2017-10-19T06:23:54.759Z,26.60
2017-10-19T06:26:22.149Z,27.37
2017-10-19T06:28:50.485Z,26.27
2017-10-19T06:31:17.890Z,25.60
2017-10-19T06:33:45.281Z,29.13
2017-10-19T06:36:12.692Z,29.23
2017-10-19T06:38:40.090Z,29.47
2017-10-19T06:41:07.486Z,25.87
2017-10-19T06:43:34.877Z,28.17
2017-10-19T06:46:02.281Z,26.13
2017-10-19T06:48:29.670Z,26.30
2017-10-19T06:50:57.061Z,27.83
2017-10-19T06:53:24.461Z,28.50
2017-10-19T06:55:51.862Z,29.20
2017-10-19T06:58:19.274Z,25.90
2017-10-19T07:00:46.703Z,25.97
2017-10-19T07:03:14.094Z,25.00
2017-10-19T07:05:41.487Z,26.33
2017-10-19T07:08:08.885Z,26.33
2017-10-19T07:10:36.280Z,26.97
2017-10-19T07:13:03.669Z,27.37
2017-10-19T07:15:31.070Z,26.60
2017-10-19T07:17:58.461Z,27.30
2017-10-19T07:20:25.858Z,25.70
2017-10-19T07:22:53.265Z,24.17
2017-10-19T07:25:20.662Z,26.70
2017-10-19T07:27:48.054Z,25.23
2017-10-19T07:30:15.458Z,26.60
2017-10-19T07:32:42.850Z,26.33
2017-10-19T07:35:10.245Z,27.40
2017-10-19T07:37:37.642Z,24.53
2017-10-19T07:40:05.035Z,25.20
2017-10-19T07:42:32.435Z,25.33
2017-10-19T07:44:59.829Z,24.33
2017-10-19T07:47:27.219Z,25.13
2017-10-19T07:49:54.611Z,24.53
2017-10-19T07:52:22.014Z,25.13
2017-10-19T07:54:49.405Z,24.00
2017-10-19T07:57:16.797Z,24.40
2017-10-19T07:59:44.215Z,26.37
2017-10-19T08:02:11.602Z,25.20
2017-10-19T08:04:38.994Z,24.97
2017-10-19T08:07:06.403Z,25.00
2017-10-19T08:09:33.791Z,23.97
2017-10-19T08:12:01.177Z,25.57
2017-10-19T08:14:28.590Z,25.40
2017-10-19T08:16:55.974Z,25.70
2017-10-19T08:19:23.373Z,24.90
2017-10-19T08:21:50.774Z,24.13
2017-10-19T08:24:18.169Z,25.20
2017-10-19T08:26:45.562Z,22.80
2017-10-19T08:29:12.969Z,24.13
2017-10-19T08:31:40.358Z,23.60
2017-10-19T08:34:07.745Z,22.60
2017-10-19T08:36:35.150Z,21.83
2017-10-19T08:39:02.543Z,21.73
2017-10-19T08:41:29.933Z,21.30
2017-10-19T08:43:57.354Z,21.00
2017-10-19T08:46:24.761Z,21.77
2017-10-19T08:48:52.141Z,21.87
2017-10-19T08:51:19.561Z,20.90
2017-10-19T08:53:46.964Z,19.73
2017-10-19T08:56:14.342Z,20.20
2017-10-19T08:58:41.765Z,21.53
2017-10-19T09:01:09.165Z,20.90
2017-10-19T09:03:36.555Z,20.60
2017-10-19T09:06:03.991Z,21.43
2017-10-19T09:08:31.377Z,21.00
2017-10-19T09:10:58.770Z,19.10
2017-10-19T09:13:26.182Z,19.53
2017-10-19T09:15:53.569Z,19.63
2017-10-19T09:18:20.962Z,20.20
2017-10-19T09:20:48.371Z,19.70
2017-10-19T09:23:15.766Z,20.47
2017-10-19T09:25:43.166Z,20.10
2017-10-19T09:28:10.569Z,20.20
2017-10-19T09:30:37.966Z,20.20
2017-10-19T09:33:05.357Z,18.10
2017-10-19T09:35:32.762Z,20.40
2017-10-19T09:38:00.154Z,20.30
2017-10-19T09:40:27.542Z,20.27
2017-10-19T09:42:54.954Z,20.20
2017-10-19T09:45:22.352Z,18.40
2017-10-19T09:47:49.749Z,19.03
2017-10-19T09:50:17.154Z,19.63
2017-10-19T09:52:44.541Z,19.00
2017-10-19T09:55:11.934Z,18.87
2017-10-19T09:57:39.354Z,18.37
2017-10-19T10:00:06.749Z,18.30
2017-10-19T10:02:34.142Z,19.13
2017-10-19T10:05:01.551Z,20.23
2017-10-19T10:07:28.942Z,19.50
2017-10-19T10:09:56.337Z,19.17
2017-10-19T10:12:23.738Z,18.70
2017-10-19T10:14:51.131Z,17.90
2017-10-19T10:17:18.522Z,19.90
2017-10-19T10:19:46.033Z,17.77
2017-10-19T10:22:13.425Z,18.20
2017-10-19T10:24:40.826Z,18.40
2017-10-19T10:27:08.226Z,17.70
2017-10-19T10:29:35.618Z,17.80
2017-10-19T10:32:03.030Z,18.00
2017-10-19T10:34:30.438Z,17.60
2017-10-19T10:36:57.837Z,19.03
2017-10-19T10:39:25.229Z,18.93
2017-10-19T10:41:52.639Z,18.83
2017-10-19T10:44:20.030Z,19.00
2017-10-19T10:46:47.417Z,20.30
2017-10-19T10:49:14.828Z,17.83
2017-10-19T10:51:42.222Z,18.80
2017-10-19T10:54:09.614Z,18.77
2017-10-19T10:56:37.022Z,20.90
2017-10-19T10:59:04.418Z,18.40
2017-10-19T11:01:31.817Z,19.43
2017-10-19T11:03:59.225Z,19.20
2017-10-19T11:06:26.614Z,18.40
2017-10-19T11:08:54.003Z,19.53
2017-10-19T11:11:21.402Z,18.90
2017-10-19T11:13:48.791Z,17.10
2017-10-19T11:16:16.177Z,17.67
2017-10-19T11:18:43.585Z,18.37
2017-10-19T11:21:10.987Z,19.83
2017-10-19T11:23:38.373Z,19.30
2017-10-19T11:26:06.598Z,17.17
2017-10-19T11:28:33.988Z,16.90
2017-10-19T11:31:01.379Z,17.07
2017-10-19T11:33:28.787Z,17.30
2017-10-19T11:35:56.175Z,16.33
2017-10-19T11:38:23.562Z,16.13
2017-10-19T11:40:50.962Z,18.07
2017-10-19T11:43:18.346Z,17.27
2017-10-19T11:45:45.742Z,16.33
2017-10-19T11:48:13.153Z,16.90
2017-10-19T11:50:40.537Z,16.10
2017-10-19T11:53:07.936Z,16.33
2017-10-19T11:55:35.329Z,16.30
2017-10-19T11:58:02.718Z,15.00
2017-10-19T12:00:30.117Z,13.93
2017-10-19T12:02:57.516Z,16.63
2017-10-19T12:05:24.910Z,17.50
2017-10-19T12:07:52.302Z,17.97
2017-10-19T12:10:19.707Z,15.43
2017-10-19T12:12:47.093Z,15.10
2017-10-19T12:15:14.482Z,15.23
2017-10-19T12:17:41.920Z,16.03
2017-10-19T12:20:09.310Z,16.17
2017-10-19T12:22:36.744Z,14.80
2017-10-19T12:25:04.209Z,16.77
2017-10-19T12:27:31.590Z,15.00
2017-10-19T12:29:59.038Z,15.87
2017-10-19T12:32:26.539Z,15.43
2017-10-19T12:34:53.985Z,17.87
2017-10-19T12:37:21.402Z,15.60
2017-10-19T12:39:48.874Z,17.27
2017-10-19T12:42:16.258Z,16.67
2017-10-19T12:44:43.658Z,16.60
2017-10-19T12:47:11.121Z,15.50
2017-10-19T12:49:38.509Z,18.60
2017-10-19T12:52:05.911Z,17.17
2017-10-19T12:54:33.393Z,17.00
2017-10-19T12:57:00.774Z,17.03
2017-10-19T12:59:28.174Z,17.30
2017-10-19T13:01:55.609Z,17.23
2017-10-19T13:04:23.057Z,16.70
2017-10-19T13:06:50.442Z,15.30
2017-10-19T13:09:17.842Z,16.73
2017-10-19T13:11:45.236Z,17.30
2017-10-19T13:14:12.670Z,16.70
2017-10-19T13:16:40.058Z,14.57
2017-10-19T13:19:07.489Z,15.80
2017-10-19T13:21:34.869Z,15.90
2017-10-19T13:24:02.285Z,14.80
2017-10-19T13:26:29.686Z,14.73
2017-10-19T13:28:57.110Z,14.60
2017-10-19T13:31:24.509Z,15.10
2017-10-19T13:33:51.914Z,14.60
2017-10-19T13:36:19.318Z,14.90
2017-10-19T13:38:46.714Z,14.60
2017-10-19T13:41:14.163Z,13.77
2017-10-19T13:43:41.550Z,14.60
2017-10-19T13:46:09.006Z,14.87
2017-10-19T13:48:36.454Z,14.57
2017-10-19T13:51:03.848Z,14.20
2017-10-19T13:53:31.253Z,14.50
2017-10-19T13:55:58.667Z,14.30
2017-10-19T13:58:26.043Z,15.30
2017-10-19T14:00:53.482Z,15.53
2017-10-19T14:03:20.897Z,14.60
2017-10-19T14:05:48.291Z,13.70
2017-10-19T14:08:15.697Z,14.70
2017-10-19T14:10:43.085Z,17.70
2017-10-19T14:13:10.497Z,17.57
2017-10-19T14:15:37.899Z,15.77
2017-10-19T14:18:05.287Z,17.27
2017-10-19T14:20:32.685Z,15.27
2017-10-19T14:23:00.098Z,15.90
2017-10-19T14:25:27.499Z,15.13
2017-10-19T14:27:54.893Z,16.60
2017-10-19T14:30:22.372Z,16.33
2017-10-19T14:32:49.777Z,16.67
2017-10-19T14:35:17.162Z,15.57
2017-10-19T14:37:45.202Z,15.60
2017-10-19T14:40:12.636Z,16.00
2017-10-19T14:42:40.674Z,16.73
2017-10-19T14:45:08.441Z,17.50
2017-10-19T14:47:35.838Z,15.60
2017-10-19T14:50:03.455Z,16.97
2017-10-19T14:52:31.442Z,16.00
2017-10-19T14:54:58.834Z,17.23
2017-10-19T14:57:26.220Z,16.30
2017-10-19T14:59:53.700Z,17.60
2017-10-19T15:02:21.089Z,16.87
2017-10-19T15:04:48.513Z,16.20
2017-10-19T15:07:15.929Z,16.07
2017-10-19T15:09:49.851Z,16.77
2017-10-19T15:12:17.298Z,16.90
2017-10-19T15:14:44.980Z,15.93
2017-10-19T15:17:12.377Z,16.30
2017-10-19T15:19:39.789Z,15.70
2017-10-19T15:22:07.709Z,15.00
2017-10-19T15:24:35.115Z,15.97
2017-10-19T15:27:02.513Z,15.87
2017-10-19T15:29:30.855Z,15.97
2017-10-19T15:31:58.261Z,16.73
2017-10-19T15:34:25.667Z,14.80
2017-10-19T15:36:53.050Z,15.87
2017-10-19T15:39:20.445Z,16.10
2017-10-19T15:41:47.886Z,14.50
2017-10-19T15:44:15.271Z,14.00
2017-10-19T15:46:42.765Z,14.47
2017-10-19T15:49:10.161Z,14.37
2017-10-19T15:51:37.550Z,13.60
2017-10-19T15:54:04.945Z,15.23
2017-10-19T15:56:32.349Z,13.97
2017-10-19T15:58:59.913Z,14.70
2017-10-19T16:01:27.302Z,15.03
2017-10-19T16:03:54.709Z,14.87
2017-10-19T16:06:22.130Z,13.67
2017-10-19T16:08:49.570Z,14.37
2017-10-19T16:11:16.978Z,14.80
2017-10-19T16:13:44.367Z,15.37
2017-10-19T16:16:11.780Z,14.60
2017-10-19T16:18:45.782Z,15.20
2017-10-19T16:21:13.161Z,13.77
2017-10-19T16:23:40.553Z,14.57
2017-10-19T16:26:07.962Z,15.17
2017-10-19T16:28:35.362Z,14.97
2017-10-19T16:31:02.738Z,15.53
2017-10-19T16:33:30.153Z,14.23
2017-10-19T16:35:57.547Z,15.30
2017-10-19T16:38:24.934Z,15.10
2017-10-19T16:40:52.333Z,16.40
2017-10-19T16:43:19.737Z,15.70
2017-10-19T16:45:47.120Z,15.53
2017-10-19T16:48:14.553Z,14.30
2017-10-19T16:50:41.988Z,15.07
2017-10-19T16:53:09.374Z,16.47
2017-10-19T16:55:36.778Z,15.60
2017-10-19T16:58:04.162Z,15.13
2017-10-19T17:00:31.575Z,15.53
2017-10-19T17:02:58.974Z,15.70
2017-10-19T17:05:26.381Z,14.80
2017-10-19T17:07:53.770Z,15.57
2017-10-19T17:10:21.181Z,14.33
2017-10-19T17:12:48.557Z,14.27
2017-10-19T17:15:15.957Z,13.73
2017-10-19T17:17:43.650Z,14.10
2017-10-19T17:20:11.055Z,14.73
2017-10-19T17:22:38.477Z,15.07
2017-10-19T17:25:05.893Z,14.23
2017-10-19T17:27:33.265Z,14.50
2017-10-19T17:30:00.659Z,14.50
2017-10-19T17:32:28.068Z,15.70
2017-10-19T17:34:55.457Z,15.20
2017-10-19T17:37:22.838Z,14.23
2017-10-19T17:39:50.258Z,15.23
2017-10-19T17:42:17.651Z,14.73
2017-10-19T17:44:45.047Z,15.53
2017-10-19T17:47:12.541Z,16.20
2017-10-19T17:49:39.959Z,16.37
2017-10-19T17:52:07.334Z,15.27
2017-10-19T17:54:34.781Z,16.70
2017-10-19T17:57:02.201Z,16.50
2017-10-19T17:59:29.614Z,17.00
2017-10-19T18:01:57.031Z,16.20
2017-10-19T18:04:24.661Z,14.40
2017-10-19T18:06:52.060Z,15.23
2017-10-19T18:09:19.459Z,15.17
2017-10-19T18:11:46.869Z,14.53
2017-10-19T18:14:14.318Z,16.10
2017-10-19T18:16:41.768Z,15.27
2017-10-19T18:19:09.190Z,14.57
2017-10-19T18:21:36.763Z,15.10
2017-10-19T18:24:04.222Z,16.30
2017-10-19T18:26:31.662Z,15.50
2017-10-19T18:28:59.256Z,15.40
2017-10-19T18:31:26.725Z,16.40
2017-10-19T18:33:54.097Z,15.97
2017-10-19T18:36:21.489Z,16.10
2017-10-19T18:38:48.908Z,16.40
2017-10-19T18:41:16.326Z,14.83
2017-10-19T18:43:43.790Z,15.63
2017-10-19T18:46:11.270Z,16.30
2017-10-19T18:48:38.702Z,15.67
2017-10-19T18:51:06.122Z,15.80
2017-10-19T18:53:33.534Z,15.30
2017-10-19T18:56:00.966Z,16.17
2017-10-19T18:58:28.362Z,15.97
2017-10-19T19:00:55.796Z,17.10
2017-10-19T19:03:23.186Z,17.30
2017-10-19T19:05:50.605Z,16.27
2017-10-19T19:08:18.013Z,15.97
2017-10-19T19:10:45.425Z,16.70
2017-10-19T19:13:12.811Z,17.40
2017-10-19T19:15:40.262Z,16.57
2017-10-19T19:18:07.668Z,15.93
2017-10-19T19:20:35.090Z,16.50
2017-10-19T19:23:02.541Z,16.57
2017-10-19T19:25:29.939Z,16.87
2017-10-19T19:27:57.325Z,17.50
2017-10-19T19:30:24.726Z,16.53
2017-10-19T19:32:52.147Z,16.13
2017-10-19T19:35:19.531Z,17.03
2017-10-19T19:37:46.954Z,17.80
2017-10-19T19:40:14.349Z,16.80
2017-10-19T19:42:41.791Z,18.37
2017-10-19T19:45:09.194Z,17.17
2017-10-19T19:47:36.583Z,16.93
2017-10-19T19:50:03.967Z,16.33
2017-10-19T19:52:31.429Z,17.50
2017-10-19T19:54:58.827Z,17.23
2017-10-19T19:57:26.224Z,18.57
2017-10-19T19:59:53.626Z,17.90
2017-10-19T20:02:21.074Z,18.10
2017-10-19T20:04:48.486Z,18.10
2017-10-19T20:07:15.886Z,17.93
2017-10-19T20:09:43.298Z,17.27
2017-10-19T20:12:10.674Z,17.90
2017-10-19T20:14:38.122Z,17.00
2017-10-19T20:17:05.519Z,17.10
2017-10-19T20:19:32.893Z,18.03
2017-10-19T20:22:00.356Z,18.90
2017-10-19T20:24:27.725Z,17.20
2017-10-19T20:26:55.151Z,18.07
2017-10-19T20:29:22.586Z,18.97
2017-10-19T20:31:49.983Z,18.90
2017-10-19T20:34:17.379Z,18.37
2017-10-19T20:36:44.800Z,16.83
2017-10-19T20:39:12.195Z,17.80
2017-10-19T20:41:39.581Z,18.73
2017-10-19T20:44:06.999Z,17.40
2017-10-19T20:46:34.382Z,19.93
2017-10-19T20:49:01.789Z,18.70
2017-10-19T20:51:29.177Z,18.90
2017-10-19T20:53:56.570Z,19.10
2017-10-19T20:56:23.969Z,18.00
2017-10-19T20:58:51.374Z,18.40
2017-10-19T21:01:18.778Z,19.57
2017-10-19T21:03:46.187Z,18.60
2017-10-19T21:06:13.586Z,18.77
2017-10-19T21:08:40.970Z,18.27
2017-10-19T21:11:08.368Z,18.70
2017-10-19T21:13:35.767Z,18.47
2017-10-19T21:16:03.184Z,19.47
2017-10-19T21:18:30.580Z,18.23
2017-10-19T21:20:57.981Z,19.17
2017-10-19T21:23:25.377Z,17.50
2017-10-19T21:25:52.753Z,17.90
2017-10-19T21:28:20.149Z,18.50
2017-10-19T21:30:47.554Z,18.20
2017-10-19T21:33:14.947Z,17.87
2017-10-19T21:35:42.351Z,18.40
2017-10-19T21:38:09.735Z,17.60
2017-10-19T21:40:37.133Z,17.33
2017-10-19T21:43:04.522Z,17.67
2017-10-19T21:45:31.910Z,18.57
2017-10-19T21:47:59.321Z,18.53
2017-10-19T21:50:26.709Z,18.07
2017-10-19T21:52:54.097Z,17.43
2017-10-19T21:55:21.532Z,17.57
2017-10-19T21:57:48.962Z,17.60
2017-10-19T22:00:16.366Z,18.10
2017-10-19T22:02:43.750Z,18.00
2017-10-19T22:05:11.154Z,17.50
2017-10-19T22:07:38.579Z,17.43
2017-10-19T22:10:05.957Z,16.23
2017-10-19T22:12:33.354Z,16.97
2017-10-19T22:15:00.746Z,17.70
2017-10-19T22:17:28.171Z,16.60
2017-10-19T22:19:55.573Z,16.73
2017-10-19T22:22:22.969Z,15.93
2017-10-19T22:24:50.369Z,15.63
2017-10-19T22:27:17.774Z,16.60
2017-10-19T22:29:45.165Z,16.50
2017-10-19T22:32:12.558Z,15.90
2017-10-19T22:34:39.955Z,16.60
2017-10-19T22:37:07.338Z,16.23
2017-10-19T22:39:34.728Z,15.30
2017-10-19T22:42:02.130Z,15.70
2017-10-19T22:44:29.514Z,15.50
2017-10-19T22:46:56.899Z,15.47
2017-10-19T22:49:24.296Z,15.50
2017-10-19T22:51:51.686Z,16.63
2017-10-19T22:54:19.073Z,15.27
2017-10-19T22:56:46.474Z,15.80
2017-10-19T22:59:13.862Z,15.77
2017-10-19T23:01:41.245Z,15.87
2017-10-19T23:04:08.657Z,15.83
2017-10-19T23:06:36.043Z,16.00
2017-10-19T23:09:03.430Z,16.13
2017-10-19T23:11:30.838Z,15.20
2017-10-19T23:13:58.219Z,16.00
2017-10-19T23:16:25.607Z,15.77
2017-10-19T23:18:53.016Z,16.67
2017-10-19T23:21:20.395Z,16.87
2017-10-19T23:23:47.784Z,16.80
2017-10-19T23:26:15.193Z,15.30
2017-10-19T23:28:42.590Z,16.33
2017-10-19T23:31:09.983Z,15.77
2017-10-19T23:33:37.385Z,14.90
2017-10-19T23:36:04.778Z,15.10
2017-10-19T23:38:32.159Z,16.07
2017-10-19T23:40:59.554Z,14.90
2017-10-19T23:43:26.947Z,15.73
2017-10-19T23:45:54.337Z,15.33
2017-10-19T23:48:21.746Z,15.10
2017-10-19T23:50:49.132Z,15.03
2017-10-19T23:53:16.519Z,14.73
2017-10-19T23:55:43.926Z,14.13
2017-10-19T23:58:11.315Z,14.43
